JBU1330 KLGA-KDCA
Flight info
| Callsign | JBU1330 |
|---|---|
| Flight time | 0h 23m |
| Altitude | 16000 |
| Route | BIGGY V3 MXE CLIPR3 |
| Aircraft | A20N/M-SDE2E3FGHIRWXY/LB1 |
Departure
| Time | 2026-05-07 17:53 |
|---|---|
| Airport | LaGuardia Airport (KLGA) |
Arrival
| Time | 2026-05-07 18:16 |
|---|---|
| Airport | Ronald Reagan Washington National Airport (KDCA) |
| Time | Latitude | Longitude | Altitude | Speed | Heading |
|---|---|---|---|---|---|
| 2026-05-07 17:31 | 40.77477 | -73.87177 | 12 ft | 0 kts | 358° |
| 2026-05-07 17:47 | 40.77462 | -73.87176 | 12 ft | 2 kts | 358° |
| 2026-05-07 17:47 | 40.77448 | -73.87176 | 12 ft | 2 kts | 358° |
| 2026-05-07 17:48 | 40.77433 | -73.87175 | 12 ft | 1 kts | 358° |
| 2026-05-07 17:48 | 40.77425 | -73.87175 | 12 ft | 1 kts | 336° |
| 2026-05-07 17:48 | 40.77417 | -73.87163 | 12 ft | 1 kts | 276° |
| 2026-05-07 17:48 | 40.77417 | -73.87153 | 12 ft | 0 kts | 241° |
| 2026-05-07 17:49 | 40.77420 | -73.87146 | 12 ft | 0 kts | 248° |
| 2026-05-07 17:50 | 40.77419 | -73.87148 | 12 ft | 0 kts | 247° |
| 2026-05-07 17:50 | 40.77414 | -73.87171 | 12 ft | 4 kts | 265° |
| 2026-05-07 17:50 | 40.77425 | -73.87231 | 12 ft | 8 kts | 285° |
| 2026-05-07 17:50 | 40.77432 | -73.87324 | 13 ft | 11 kts | 269° |
| 2026-05-07 17:51 | 40.77468 | -73.87556 | 15 ft | 38 kts | 303° |
| 2026-05-07 17:51 | 40.77491 | -73.87783 | 15 ft | 20 kts | 212° |
| 2026-05-07 17:51 | 40.77370 | -73.87884 | 15 ft | 20 kts | 213° |
| 2026-05-07 17:51 | 40.77231 | -73.88004 | 15 ft | 34 kts | 212° |
| 2026-05-07 17:52 | 40.76987 | -73.88221 | 15 ft | 40 kts | 224° |
| 2026-05-07 17:52 | 40.76979 | -73.88364 | 16 ft | 17 kts | 27° |
| 2026-05-07 17:52 | 40.77222 | -73.88163 | 16 ft | 78 kts | 32° |
| 2026-05-07 17:52 | 40.77883 | -73.87608 | 13 ft | 142 kts | 30° |
| 2026-05-07 17:53 | 40.78736 | -73.86874 | 586 ft | 143 kts | 32° |
| 2026-05-07 17:53 | 40.79544 | -73.86099 | 1116 ft | 153 kts | 32° |
| 2026-05-07 17:53 | 40.80479 | -73.85231 | 1534 ft | 173 kts | 30° |
| 2026-05-07 17:53 | 40.81619 | -73.84540 | 1999 ft | 187 kts | 2° |
| 2026-05-07 17:54 | 40.82899 | -73.84901 | 2553 ft | 198 kts | 326° |
| 2026-05-07 17:54 | 40.83849 | -73.86351 | 2820 ft | 230 kts | 293° |
| 2026-05-07 17:54 | 40.84040 | -73.88557 | 3225 ft | 260 kts | 262° |
| 2026-05-07 17:54 | 40.83325 | -73.90833 | 3832 ft | 278 kts | 244° |
| 2026-05-07 17:55 | 40.82448 | -73.93115 | 4701 ft | 283 kts | 247° |
| 2026-05-07 17:55 | 40.73997 | -74.15457 | 12126 ft | 289 kts | 245° |
| 2026-05-07 17:55 | 40.59388 | -74.52884 | 24251 ft | 287 kts | 244° |
| 2026-05-07 17:55 | 40.45024 | -74.89525 | 33158 ft | 283 kts | 244° |
| 2026-05-07 17:56 | 40.42862 | -74.94559 | 34128 ft | 284 kts | 240° |
| 2026-05-07 17:56 | 40.41723 | -74.96718 | 33973 ft | 295 kts | 239° |
| 2026-05-07 17:56 | 40.39137 | -75.01054 | 33905 ft | 309 kts | 236° |
| 2026-05-07 17:57 | 40.36196 | -75.05334 | 33894 ft | 320 kts | 234° |
| 2026-05-07 17:57 | 40.33149 | -75.09666 | 33891 ft | 328 kts | 233° |
| 2026-05-07 17:58 | 40.30007 | -75.14075 | 33893 ft | 333 kts | 233° |
| 2026-05-07 17:58 | 40.26841 | -75.18519 | 33894 ft | 338 kts | 233° |
| 2026-05-07 17:59 | 40.23607 | -75.23032 | 33892 ft | 342 kts | 233° |
| 2026-05-07 17:59 | 40.20344 | -75.27574 | 33892 ft | 343 kts | 233° |
| 2026-05-07 18:00 | 40.17088 | -75.32116 | 33896 ft | 342 kts | 233° |
| 2026-05-07 18:00 | 40.13814 | -75.36661 | 33899 ft | 343 kts | 233° |
| 2026-05-07 18:01 | 40.10560 | -75.41182 | 33906 ft | 343 kts | 233° |
| 2026-05-07 18:01 | 40.07286 | -75.45725 | 33913 ft | 344 kts | 233° |
| 2026-05-07 18:02 | 40.02379 | -75.52515 | 33919 ft | 344 kts | 233° |
| 2026-05-07 18:03 | 39.99102 | -75.57042 | 33920 ft | 343 kts | 233° |
| 2026-05-07 18:03 | 39.95840 | -75.61540 | 33919 ft | 343 kts | 233° |
| 2026-05-07 18:04 | 39.93783 | -75.64445 | 33836 ft | 343 kts | 234° |
| 2026-05-07 18:04 | 39.93264 | -75.65231 | 33729 ft | 340 kts | 234° |
| 2026-05-07 18:04 | 39.91802 | -75.67553 | 33354 ft | 331 kts | 237° |
| 2026-05-07 18:05 | 39.90414 | -75.69956 | 33100 ft | 329 kts | 238° |
| 2026-05-07 18:05 | 39.89127 | -75.72357 | 32820 ft | 321 kts | 240° |
| 2026-05-07 18:05 | 39.73521 | -76.02127 | 26813 ft | 308 kts | 238° |
| 2026-05-07 18:05 | 39.59681 | -76.28322 | 21321 ft | 289 kts | 237° |
| 2026-05-07 18:06 | 39.58342 | -76.30181 | 20825 ft | 277 kts | 228° |
| 2026-05-07 18:06 | 39.56868 | -76.31727 | 20206 ft | 271 kts | 223° |
| 2026-05-07 18:06 | 39.44748 | -76.42273 | 13602 ft | 272 kts | 220° |
| 2026-05-07 18:06 | 39.40996 | -76.45561 | 11636 ft | 268 kts | 220° |
| 2026-05-07 18:07 | 39.30023 | -76.54960 | 9754 ft | 255 kts | 220° |
| 2026-05-07 18:07 | 39.28548 | -76.56251 | 9887 ft | 256 kts | 220° |
| 2026-05-07 18:07 | 39.27068 | -76.57544 | 9943 ft | 256 kts | 220° |
| 2026-05-07 18:07 | 39.25588 | -76.58831 | 9964 ft | 257 kts | 220° |
| 2026-05-07 18:08 | 39.24101 | -76.60116 | 9970 ft | 251 kts | 220° |
| 2026-05-07 18:08 | 39.22651 | -76.61366 | 9980 ft | 254 kts | 220° |
| 2026-05-07 18:08 | 39.17663 | -76.65674 | 9996 ft | 255 kts | 221° |
| 2026-05-07 18:08 | 39.16283 | -76.67082 | 9989 ft | 253 kts | 224° |
| 2026-05-07 18:09 | 39.14788 | -76.68304 | 9799 ft | 263 kts | 211° |
| 2026-05-07 18:09 | 39.06151 | -76.72767 | 7293 ft | 267 kts | 206° |
| 2026-05-07 18:09 | 38.98098 | -76.77150 | 5038 ft | 266 kts | 208° |
| 2026-05-07 18:09 | 38.96447 | -76.78135 | 4983 ft | 252 kts | 208° |
| 2026-05-07 18:10 | 38.94890 | -76.79044 | 4975 ft | 239 kts | 207° |
| 2026-05-07 18:10 | 38.93378 | -76.79917 | 4983 ft | 236 kts | 207° |
| 2026-05-07 18:10 | 38.91921 | -76.80746 | 4989 ft | 220 kts | 207° |
| 2026-05-07 18:10 | 38.83847 | -76.85283 | 4877 ft | 207 kts | 207° |
| 2026-05-07 18:11 | 38.72197 | -76.91774 | 5126 ft | 206 kts | 207° |
| 2026-05-07 18:11 | 38.70919 | -76.92578 | 5027 ft | 201 kts | 221° |
| 2026-05-07 18:11 | 38.69986 | -76.93864 | 5006 ft | 197 kts | 238° |
| 2026-05-07 18:11 | 38.69384 | -76.95419 | 4949 ft | 194 kts | 256° |
| 2026-05-07 18:12 | 38.69026 | -76.97083 | 4467 ft | 201 kts | 259° |
| 2026-05-07 18:12 | 38.68678 | -76.98852 | 3768 ft | 207 kts | 259° |
| 2026-05-07 18:12 | 38.68520 | -77.00648 | 3020 ft | 203 kts | 284° |
| 2026-05-07 18:12 | 38.69172 | -77.02125 | 2477 ft | 186 kts | 323° |
| 2026-05-07 18:13 | 38.70327 | -77.02636 | 2347 ft | 173 kts | 356° |
| 2026-05-07 18:13 | 38.71501 | -77.02625 | 2346 ft | 163 kts | 1° |
| 2026-05-07 18:13 | 38.72642 | -77.02604 | 2271 ft | 166 kts | 360° |
| 2026-05-07 18:13 | 38.73828 | -77.02634 | 2063 ft | 170 kts | 357° |
| 2026-05-07 18:14 | 38.74962 | -77.02724 | 1813 ft | 155 kts | 356° |
| 2026-05-07 18:14 | 38.75982 | -77.02831 | 1599 ft | 145 kts | 355° |
| 2026-05-07 18:14 | 38.76981 | -77.02938 | 1415 ft | 146 kts | 356° |
| 2026-05-07 18:14 | 38.78046 | -77.03050 | 1248 ft | 155 kts | 355° |
| 2026-05-07 18:15 | 38.79131 | -77.03162 | 1044 ft | 159 kts | 356° |
| 2026-05-07 18:15 | 38.80254 | -77.03276 | 826 ft | 165 kts | 355° |
| 2026-05-07 18:15 | 38.81397 | -77.03399 | 650 ft | 157 kts | 355° |
| 2026-05-07 18:15 | 38.82455 | -77.03509 | 383 ft | 147 kts | 356° |
| 2026-05-07 18:16 | 38.83471 | -77.03603 | 172 ft | 146 kts | 356° |
| 2026-05-07 18:16 | 38.84480 | -77.03706 | 24 ft | 140 kts | 353° |
| 2026-05-07 18:16 | 38.85332 | -77.03793 | 19 ft | 92 kts | 354° |
| 2026-05-07 18:16 | 38.85752 | -77.03840 | 17 ft | 40 kts | 355° |
| 2026-05-07 18:17 | 38.85920 | -77.03944 | 16 ft | 18 kts | 294° |